sensor_id;sensor_type;location;lat;lon;timestamp;P1;durP1;ratioP1;P2;durP2;ratioP2
11006;SDS011;8186;57.652;11.968;2022-07-29T00:00:04;3.77;;;1.87;;
11006;SDS011;8186;57.652;11.968;2022-07-29T00:02:32;3.73;;;1.77;;
11006;SDS011;8186;57.652;11.968;2022-07-29T00:05:00;3.43;;;1.97;;
11006;SDS011;8186;57.652;11.968;2022-07-29T00:07:27;3.10;;;1.90;;
11006;SDS011;8186;57.652;11.968;2022-07-29T00:09:54;4.23;;;1.80;;
11006;SDS011;8186;57.652;11.968;2022-07-29T00:12:21;2.80;;;1.80;;
11006;SDS011;8186;57.652;11.968;2022-07-29T00:14:49;4.03;;;1.90;;
11006;SDS011;8186;57.652;11.968;2022-07-29T00:17:17;3.40;;;1.73;;
11006;SDS011;8186;57.652;11.968;2022-07-29T00:19:44;3.43;;;1.73;;
11006;SDS011;8186;57.652;11.968;2022-07-29T00:22:12;4.20;;;1.60;;
11006;SDS011;8186;57.652;11.968;2022-07-29T00:24:39;4.33;;;1.63;;
11006;SDS011;8186;57.652;11.968;2022-07-29T00:27:06;4.23;;;2.10;;
11006;SDS011;8186;57.652;11.968;2022-07-29T00:29:32;4.13;;;1.90;;
11006;SDS011;8186;57.652;11.968;2022-07-29T00:31:59;2.67;;;1.80;;
11006;SDS011;8186;57.652;11.968;2022-07-29T00:34:26;2.23;;;1.60;;
11006;SDS011;8186;57.652;11.968;2022-07-29T00:37:12;5.60;;;2.00;;
11006;SDS011;8186;57.652;11.968;2022-07-29T00:39:39;5.03;;;1.83;;
11006;SDS011;8186;57.652;11.968;2022-07-29T00:42:06;3.47;;;1.70;;
11006;SDS011;8186;57.652;11.968;2022-07-29T00:44:35;3.93;;;1.97;;
11006;SDS011;8186;57.652;11.968;2022-07-29T00:47:03;2.93;;;1.63;;
11006;SDS011;8186;57.652;11.968;2022-07-29T00:49:30;3.60;;;1.90;;
11006;SDS011;8186;57.652;11.968;2022-07-29T00:51:56;2.33;;;1.70;;
11006;SDS011;8186;57.652;11.968;2022-07-29T00:54:25;6.17;;;2.00;;
11006;SDS011;8186;57.652;11.968;2022-07-29T00:56:52;7.43;;;2.07;;
11006;SDS011;8186;57.652;11.968;2022-07-29T00:59:19;3.80;;;1.93;;
11006;SDS011;8186;57.652;11.968;2022-07-29T01:01:46;2.53;;;1.83;;
11006;SDS011;8186;57.652;11.968;2022-07-29T01:04:12;5.03;;;1.73;;
11006;SDS011;8186;57.652;11.968;2022-07-29T01:06:39;3.70;;;1.87;;
11006;SDS011;8186;57.652;11.968;2022-07-29T01:09:06;3.87;;;2.20;;
11006;SDS011;8186;57.652;11.968;2022-07-29T01:11:35;4.40;;;1.70;;
11006;SDS011;8186;57.652;11.968;2022-07-29T01:14:02;5.57;;;1.83;;
11006;SDS011;8186;57.652;11.968;2022-07-29T01:16:30;4.53;;;1.90;;
11006;SDS011;8186;57.652;11.968;2022-07-29T01:19:00;5.17;;;2.30;;
11006;SDS011;8186;57.652;11.968;2022-07-29T01:21:50;4.43;;;1.70;;
11006;SDS011;8186;57.652;11.968;2022-07-29T01:24:27;5.70;;;1.80;;
11006;SDS011;8186;57.652;11.968;2022-07-29T01:27:03;6.13;;;1.80;;
11006;SDS011;8186;57.652;11.968;2022-07-29T01:29:41;5.70;;;1.77;;
11006;SDS011;8186;57.652;11.968;2022-07-29T01:32:08;2.27;;;1.50;;
11006;SDS011;8186;57.652;11.968;2022-07-29T01:34:39;2.60;;;1.63;;
11006;SDS011;8186;57.652;11.968;2022-07-29T01:37:09;4.90;;;1.80;;
11006;SDS011;8186;57.652;11.968;2022-07-29T01:39:40;3.03;;;2.00;;
11006;SDS011;8186;57.652;11.968;2022-07-29T01:42:11;4.20;;;1.80;;
11006;SDS011;8186;57.652;11.968;2022-07-29T01:44:45;5.93;;;2.00;;
11006;SDS011;8186;57.652;11.968;2022-07-29T01:47:17;4.80;;;2.17;;
11006;SDS011;8186;57.652;11.968;2022-07-29T01:49:47;3.67;;;1.70;;
11006;SDS011;8186;57.652;11.968;2022-07-29T01:52:19;3.17;;;2.20;;
11006;SDS011;8186;57.652;11.968;2022-07-29T01:54:49;3.90;;;1.73;;
11006;SDS011;8186;57.652;11.968;2022-07-29T01:57:20;4.77;;;2.07;;
11006;SDS011;8186;57.652;11.968;2022-07-29T01:59:52;3.23;;;1.50;;
11006;SDS011;8186;57.652;11.968;2022-07-29T02:02:19;4.40;;;1.57;;
11006;SDS011;8186;57.652;11.968;2022-07-29T02:04:48;5.83;;;2.50;;
11006;SDS011;8186;57.652;11.968;2022-07-29T02:07:17;2.73;;;1.73;;
11006;SDS011;8186;57.652;11.968;2022-07-29T02:09:46;2.13;;;1.70;;
11006;SDS011;8186;57.652;11.968;2022-07-29T02:12:14;7.63;;;2.20;;
11006;SDS011;8186;57.652;11.968;2022-07-29T02:14:42;2.37;;;1.70;;
11006;SDS011;8186;57.652;11.968;2022-07-29T02:17:13;4.40;;;1.67;;
11006;SDS011;8186;57.652;11.968;2022-07-29T02:19:44;3.97;;;1.90;;
11006;SDS011;8186;57.652;11.968;2022-07-29T02:22:11;3.87;;;1.93;;
11006;SDS011;8186;57.652;11.968;2022-07-29T02:24:38;4.60;;;1.50;;
11006;SDS011;8186;57.652;11.968;2022-07-29T02:27:06;2.70;;;1.47;;
11006;SDS011;8186;57.652;11.968;2022-07-29T02:29:34;3.00;;;1.83;;
11006;SDS011;8186;57.652;11.968;2022-07-29T02:32:01;3.93;;;1.70;;
11006;SDS011;8186;57.652;11.968;2022-07-29T02:34:31;3.33;;;1.50;;
11006;SDS011;8186;57.652;11.968;2022-07-29T02:36:58;4.53;;;1.77;;
11006;SDS011;8186;57.652;11.968;2022-07-29T02:39:26;4.33;;;1.67;;
11006;SDS011;8186;57.652;11.968;2022-07-29T02:41:55;3.60;;;1.70;;
11006;SDS011;8186;57.652;11.968;2022-07-29T02:44:24;4.10;;;1.80;;
11006;SDS011;8186;57.652;11.968;2022-07-29T02:46:54;3.63;;;2.07;;
11006;SDS011;8186;57.652;11.968;2022-07-29T02:49:29;3.57;;;2.03;;
11006;SDS011;8186;57.652;11.968;2022-07-29T02:52:01;2.63;;;1.70;;
11006;SDS011;8186;57.652;11.968;2022-07-29T02:54:31;2.63;;;1.60;;
11006;SDS011;8186;57.652;11.968;2022-07-29T02:57:01;4.00;;;1.63;;
11006;SDS011;8186;57.652;11.968;2022-07-29T02:59:30;3.37;;;1.53;;
11006;SDS011;8186;57.652;11.968;2022-07-29T03:02:00;3.50;;;1.80;;
11006;SDS011;8186;57.652;11.968;2022-07-29T03:04:28;3.37;;;1.67;;
11006;SDS011;8186;57.652;11.968;2022-07-29T03:06:59;3.03;;;1.87;;
11006;SDS011;8186;57.652;11.968;2022-07-29T03:09:27;2.47;;;1.43;;
11006;SDS011;8186;57.652;11.968;2022-07-29T03:11:54;4.60;;;1.70;;
11006;SDS011;8186;57.652;11.968;2022-07-29T03:14:22;3.43;;;1.97;;
11006;SDS011;8186;57.652;11.968;2022-07-29T03:16:49;5.37;;;1.83;;
11006;SDS011;8186;57.652;11.968;2022-07-29T03:19:17;3.57;;;1.93;;
11006;SDS011;8186;57.652;11.968;2022-07-29T03:21:45;2.97;;;1.93;;
11006;SDS011;8186;57.652;11.968;2022-07-29T03:24:25;3.77;;;2.00;;
11006;SDS011;8186;57.652;11.968;2022-07-29T03:26:56;2.60;;;1.90;;
11006;SDS011;8186;57.652;11.968;2022-07-29T03:29:23;3.37;;;1.60;;
11006;SDS011;8186;57.652;11.968;2022-07-29T03:31:50;2.60;;;1.73;;
11006;SDS011;8186;57.652;11.968;2022-07-29T03:34:16;3.77;;;2.07;;
11006;SDS011;8186;57.652;11.968;2022-07-29T03:36:43;3.63;;;2.27;;
11006;SDS011;8186;57.652;11.968;2022-07-29T03:39:10;4.83;;;1.90;;
11006;SDS011;8186;57.652;11.968;2022-07-29T03:41:40;3.73;;;1.77;;
11006;SDS011;8186;57.652;11.968;2022-07-29T03:44:07;3.43;;;2.30;;
11006;SDS011;8186;57.652;11.968;2022-07-29T03:46:35;4.87;;;1.90;;
11006;SDS011;8186;57.652;11.968;2022-07-29T03:49:03;2.47;;;1.60;;
11006;SDS011;8186;57.652;11.968;2022-07-29T03:51:30;3.07;;;1.70;;
11006;SDS011;8186;57.652;11.968;2022-07-29T03:53:57;2.13;;;1.60;;
11006;SDS011;8186;57.652;11.968;2022-07-29T03:56:24;2.90;;;2.13;;
11006;SDS011;8186;57.652;11.968;2022-07-29T03:58:53;2.37;;;1.57;;
11006;SDS011;8186;57.652;11.968;2022-07-29T04:01:20;4.70;;;1.77;;
11006;SDS011;8186;57.652;11.968;2022-07-29T04:03:48;2.53;;;1.60;;
11006;SDS011;8186;57.652;11.968;2022-07-29T04:06:16;4.57;;;1.70;;
11006;SDS011;8186;57.652;11.968;2022-07-29T04:08:43;4.30;;;1.73;;
11006;SDS011;8186;57.652;11.968;2022-07-29T04:11:10;3.63;;;1.80;;
11006;SDS011;8186;57.652;11.968;2022-07-29T04:13:36;3.10;;;1.60;;
11006;SDS011;8186;57.652;11.968;2022-07-29T04:16:05;2.97;;;1.50;;
11006;SDS011;8186;57.652;11.968;2022-07-29T04:18:31;3.83;;;1.97;;
11006;SDS011;8186;57.652;11.968;2022-07-29T04:20:58;3.30;;;1.70;;
11006;SDS011;8186;57.652;11.968;2022-07-29T04:23:26;4.77;;;1.97;;
11006;SDS011;8186;57.652;11.968;2022-07-29T04:25:53;2.77;;;2.07;;
11006;SDS011;8186;57.652;11.968;2022-07-29T04:28:20;4.40;;;2.30;;
11006;SDS011;8186;57.652;11.968;2022-07-29T04:30:47;4.00;;;1.80;;
11006;SDS011;8186;57.652;11.968;2022-07-29T04:33:15;3.50;;;2.00;;
11006;SDS011;8186;57.652;11.968;2022-07-29T04:35:42;3.70;;;2.20;;
11006;SDS011;8186;57.652;11.968;2022-07-29T04:38:09;7.37;;;2.10;;
11006;SDS011;8186;57.652;11.968;2022-07-29T04:40:36;5.83;;;2.20;;
11006;SDS011;8186;57.652;11.968;2022-07-29T04:43:03;3.37;;;2.30;;
11006;SDS011;8186;57.652;11.968;2022-07-29T04:45:29;4.73;;;2.17;;
11006;SDS011;8186;57.652;11.968;2022-07-29T04:47:56;5.33;;;2.10;;
11006;SDS011;8186;57.652;11.968;2022-07-29T04:50:25;4.47;;;2.27;;
11006;SDS011;8186;57.652;11.968;2022-07-29T04:52:51;6.10;;;1.97;;
11006;SDS011;8186;57.652;11.968;2022-07-29T04:55:18;4.83;;;2.00;;
11006;SDS011;8186;57.652;11.968;2022-07-29T04:57:45;4.70;;;2.30;;
11006;SDS011;8186;57.652;11.968;2022-07-29T05:00:12;4.83;;;1.73;;
11006;SDS011;8186;57.652;11.968;2022-07-29T05:02:39;3.33;;;1.90;;
11006;SDS011;8186;57.652;11.968;2022-07-29T05:05:07;4.07;;;2.20;;
11006;SDS011;8186;57.652;11.968;2022-07-29T05:07:35;2.53;;;1.77;;
11006;SDS011;8186;57.652;11.968;2022-07-29T05:10:02;4.63;;;1.90;;
11006;SDS011;8186;57.652;11.968;2022-07-29T05:12:29;5.90;;;1.90;;
11006;SDS011;8186;57.652;11.968;2022-07-29T05:14:56;4.70;;;1.97;;
11006;SDS011;8186;57.652;11.968;2022-07-29T05:17:23;3.20;;;2.00;;
11006;SDS011;8186;57.652;11.968;2022-07-29T05:19:50;4.33;;;1.90;;
11006;SDS011;8186;57.652;11.968;2022-07-29T05:22:17;4.40;;;2.17;;
11006;SDS011;8186;57.652;11.968;2022-07-29T05:24:46;5.17;;;2.10;;
11006;SDS011;8186;57.652;11.968;2022-07-29T05:27:13;5.60;;;2.47;;
11006;SDS011;8186;57.652;11.968;2022-07-29T05:29:39;5.43;;;1.93;;
11006;SDS011;8186;57.652;11.968;2022-07-29T05:32:06;5.27;;;2.57;;
11006;SDS011;8186;57.652;11.968;2022-07-29T05:34:33;4.20;;;2.00;;
11006;SDS011;8186;57.652;11.968;2022-07-29T05:37:00;5.73;;;2.23;;
11006;SDS011;8186;57.652;11.968;2022-07-29T05:39:27;4.97;;;2.07;;
11006;SDS011;8186;57.652;11.968;2022-07-29T05:41:55;5.40;;;1.90;;
11006;SDS011;8186;57.652;11.968;2022-07-29T05:44:22;6.23;;;2.60;;
11006;SDS011;8186;57.652;11.968;2022-07-29T05:46:48;7.10;;;2.40;;
11006;SDS011;8186;57.652;11.968;2022-07-29T05:49:15;5.83;;;2.03;;
11006;SDS011;8186;57.652;11.968;2022-07-29T05:51:42;4.97;;;2.30;;
11006;SDS011;8186;57.652;11.968;2022-07-29T05:54:09;6.57;;;2.27;;
11006;SDS011;8186;57.652;11.968;2022-07-29T05:56:35;4.17;;;2.17;;
11006;SDS011;8186;57.652;11.968;2022-07-29T05:59:04;5.83;;;2.40;;
11006;SDS011;8186;57.652;11.968;2022-07-29T06:01:31;5.30;;;2.73;;
11006;SDS011;8186;57.652;11.968;2022-07-29T06:03:58;3.97;;;2.57;;
11006;SDS011;8186;57.652;11.968;2022-07-29T06:06:25;7.40;;;2.17;;
11006;SDS011;8186;57.652;11.968;2022-07-29T06:08:53;5.50;;;2.23;;
11006;SDS011;8186;57.652;11.968;2022-07-29T06:11:20;5.37;;;2.47;;
11006;SDS011;8186;57.652;11.968;2022-07-29T06:13:47;5.10;;;2.00;;
11006;SDS011;8186;57.652;11.968;2022-07-29T06:16:15;4.03;;;2.00;;
11006;SDS011;8186;57.652;11.968;2022-07-29T06:18:42;8.53;;;2.20;;
11006;SDS011;8186;57.652;11.968;2022-07-29T06:21:09;4.50;;;2.30;;
11006;SDS011;8186;57.652;11.968;2022-07-29T06:23:36;6.33;;;2.20;;
11006;SDS011;8186;57.652;11.968;2022-07-29T06:26:03;3.30;;;1.80;;
11006;SDS011;8186;57.652;11.968;2022-07-29T06:28:30;5.17;;;2.13;;
11006;SDS011;8186;57.652;11.968;2022-07-29T06:30:57;4.37;;;1.97;;
11006;SDS011;8186;57.652;11.968;2022-07-29T06:33:25;6.20;;;1.70;;
11006;SDS011;8186;57.652;11.968;2022-07-29T06:35:52;4.87;;;2.00;;
11006;SDS011;8186;57.652;11.968;2022-07-29T06:38:18;4.40;;;1.57;;
11006;SDS011;8186;57.652;11.968;2022-07-29T06:40:45;4.73;;;2.00;;
11006;SDS011;8186;57.652;11.968;2022-07-29T06:43:28;3.60;;;1.50;;
11006;SDS011;8186;57.652;11.968;2022-07-29T06:46:01;4.60;;;1.90;;
11006;SDS011;8186;57.652;11.968;2022-07-29T06:48:31;6.57;;;2.00;;
11006;SDS011;8186;57.652;11.968;2022-07-29T06:50:58;4.67;;;1.83;;
11006;SDS011;8186;57.652;11.968;2022-07-29T06:53:25;4.77;;;1.80;;
11006;SDS011;8186;57.652;11.968;2022-07-29T06:55:52;4.93;;;1.73;;
11006;SDS011;8186;57.652;11.968;2022-07-29T06:58:19;3.67;;;1.53;;
11006;SDS011;8186;57.652;11.968;2022-07-29T07:00:47;5.40;;;1.80;;
11006;SDS011;8186;57.652;11.968;2022-07-29T07:03:14;6.93;;;1.52;;
11006;SDS011;8186;57.652;11.968;2022-07-29T07:05:42;5.07;;;1.80;;
11006;SDS011;8186;57.652;11.968;2022-07-29T07:08:09;3.87;;;1.63;;
11006;SDS011;8186;57.652;11.968;2022-07-29T07:10:36;5.10;;;1.83;;
11006;SDS011;8186;57.652;11.968;2022-07-29T07:13:03;6.00;;;1.70;;
11006;SDS011;8186;57.652;11.968;2022-07-29T07:15:30;5.23;;;1.53;;
11006;SDS011;8186;57.652;11.968;2022-07-29T07:17:57;3.00;;;1.73;;
11006;SDS011;8186;57.652;11.968;2022-07-29T07:20:24;4.72;;;1.95;;
11006;SDS011;8186;57.652;11.968;2022-07-29T07:22:53;5.05;;;2.05;;
11006;SDS011;8186;57.652;11.968;2022-07-29T07:25:19;4.53;;;2.00;;
11006;SDS011;8186;57.652;11.968;2022-07-29T07:27:46;3.70;;;1.65;;
11006;SDS011;8186;57.652;11.968;2022-07-29T07:30:13;3.15;;;1.73;;
11006;SDS011;8186;57.652;11.968;2022-07-29T07:32:40;5.70;;;1.67;;
11006;SDS011;8186;57.652;11.968;2022-07-29T07:35:07;4.63;;;1.55;;
11006;SDS011;8186;57.652;11.968;2022-07-29T07:37:35;4.50;;;1.80;;
11006;SDS011;8186;57.652;11.968;2022-07-29T07:40:04;3.58;;;1.60;;
11006;SDS011;8186;57.652;11.968;2022-07-29T07:42:31;4.43;;;1.55;;
11006;SDS011;8186;57.652;11.968;2022-07-29T07:44:58;2.53;;;1.48;;
11006;SDS011;8186;57.652;11.968;2022-07-29T07:47:25;4.75;;;2.03;;
11006;SDS011;8186;57.652;11.968;2022-07-29T07:49:52;8.18;;;1.98;;
11006;SDS011;8186;57.652;11.968;2022-07-29T07:52:20;4.70;;;1.90;;
11006;SDS011;8186;57.652;11.968;2022-07-29T07:54:47;4.05;;;1.67;;
11006;SDS011;8186;57.652;11.968;2022-07-29T07:57:16;2.78;;;1.63;;
11006;SDS011;8186;57.652;11.968;2022-07-29T07:59:42;3.55;;;1.60;;
11006;SDS011;8186;57.652;11.968;2022-07-29T08:02:09;6.88;;;1.65;;
11006;SDS011;8186;57.652;11.968;2022-07-29T08:04:36;3.90;;;1.58;;
11006;SDS011;8186;57.652;11.968;2022-07-29T08:07:05;5.65;;;2.10;;
11006;SDS011;8186;57.652;11.968;2022-07-29T08:09:32;6.13;;;1.80;;
11006;SDS011;8186;57.652;11.968;2022-07-29T08:12:00;5.55;;;2.10;;
11006;SDS011;8186;57.652;11.968;2022-07-29T08:14:30;5.38;;;1.88;;
11006;SDS011;8186;57.652;11.968;2022-07-29T08:16:57;5.20;;;1.67;;
11006;SDS011;8186;57.652;11.968;2022-07-29T08:19:24;4.65;;;1.90;;
11006;SDS011;8186;57.652;11.968;2022-07-29T08:21:50;4.30;;;1.90;;
11006;SDS011;8186;57.652;11.968;2022-07-29T08:24:18;4.13;;;1.60;;
11006;SDS011;8186;57.652;11.968;2022-07-29T08:27:03;4.15;;;2.00;;
11006;SDS011;8186;57.652;11.968;2022-07-29T08:29:31;7.55;;;2.05;;
11006;SDS011;8186;57.652;11.968;2022-07-29T08:31:58;7.15;;;1.98;;
11006;SDS011;8186;57.652;11.968;2022-07-29T08:34:24;3.28;;;1.95;;
11006;SDS011;8186;57.652;11.968;2022-07-29T08:36:51;4.10;;;1.77;;
11006;SDS011;8186;57.652;11.968;2022-07-29T08:39:18;7.05;;;1.70;;
11006;SDS011;8186;57.652;11.968;2022-07-29T08:41:45;7.32;;;1.50;;
11006;SDS011;8186;57.652;11.968;2022-07-29T08:44:12;4.35;;;1.80;;
11006;SDS011;8186;57.652;11.968;2022-07-29T08:46:41;4.25;;;1.80;;
11006;SDS011;8186;57.652;11.968;2022-07-29T08:49:08;3.95;;;1.65;;
11006;SDS011;8186;57.652;11.968;2022-07-29T08:51:35;2.65;;;1.50;;
11006;SDS011;8186;57.652;11.968;2022-07-29T08:54:02;4.07;;;1.70;;
11006;SDS011;8186;57.652;11.968;2022-07-29T08:56:29;5.35;;;1.85;;
11006;SDS011;8186;57.652;11.968;2022-07-29T08:58:57;3.22;;;1.70;;
11006;SDS011;8186;57.652;11.968;2022-07-29T09:01:25;3.10;;;1.60;;
11006;SDS011;8186;57.652;11.968;2022-07-29T09:03:55;3.78;;;1.58;;
11006;SDS011;8186;57.652;11.968;2022-07-29T09:06:23;2.67;;;1.70;;
11006;SDS011;8186;57.652;11.968;2022-07-29T09:08:53;4.30;;;1.50;;
11006;SDS011;8186;57.652;11.968;2022-07-29T09:11:20;2.78;;;1.40;;
11006;SDS011;8186;57.652;11.968;2022-07-29T09:13:47;2.17;;;1.33;;
11006;SDS011;8186;57.652;11.968;2022-07-29T09:16:14;3.65;;;1.58;;
11006;SDS011;8186;57.652;11.968;2022-07-29T09:18:42;3.63;;;1.73;;
11006;SDS011;8186;57.652;11.968;2022-07-29T09:21:13;2.88;;;1.30;;
11006;SDS011;8186;57.652;11.968;2022-07-29T09:23:59;3.47;;;1.40;;
11006;SDS011;8186;57.652;11.968;2022-07-29T09:26:28;3.30;;;1.45;;
11006;SDS011;8186;57.652;11.968;2022-07-29T09:28:55;3.35;;;1.40;;
11006;SDS011;8186;57.652;11.968;2022-07-29T09:31:27;4.25;;;1.60;;
11006;SDS011;8186;57.652;11.968;2022-07-29T09:33:59;2.35;;;1.45;;
11006;SDS011;8186;57.652;11.968;2022-07-29T09:36:27;4.60;;;1.38;;
11006;SDS011;8186;57.652;11.968;2022-07-29T09:38:57;3.15;;;1.50;;
11006;SDS011;8186;57.652;11.968;2022-07-29T09:41:25;2.97;;;1.45;;
11006;SDS011;8186;57.652;11.968;2022-07-29T09:43:53;2.50;;;1.08;;
11006;SDS011;8186;57.652;11.968;2022-07-29T09:46:21;3.15;;;1.40;;
11006;SDS011;8186;57.652;11.968;2022-07-29T09:51:34;5.68;;;1.40;;
11006;SDS011;8186;57.652;11.968;2022-07-29T09:54:00;2.35;;;1.25;;
11006;SDS011;8186;57.652;11.968;2022-07-29T09:56:39;2.75;;;1.38;;
11006;SDS011;8186;57.652;11.968;2022-07-29T09:59:06;3.05;;;1.38;;
11006;SDS011;8186;57.652;11.968;2022-07-29T10:01:34;2.05;;;1.15;;
11006;SDS011;8186;57.652;11.968;2022-07-29T10:04:01;3.72;;;1.40;;
11006;SDS011;8186;57.652;11.968;2022-07-29T10:06:28;2.78;;;1.20;;
11006;SDS011;8186;57.652;11.968;2022-07-29T10:09:02;2.72;;;1.23;;
11006;SDS011;8186;57.652;11.968;2022-07-29T10:11:33;2.17;;;1.48;;
11006;SDS011;8186;57.652;11.968;2022-07-29T10:14:01;3.53;;;1.50;;
11006;SDS011;8186;57.652;11.968;2022-07-29T10:16:28;4.00;;;1.65;;
11006;SDS011;8186;57.652;11.968;2022-07-29T10:18:58;5.10;;;1.70;;
11006;SDS011;8186;57.652;11.968;2022-07-29T10:21:26;3.10;;;1.48;;
11006;SDS011;8186;57.652;11.968;2022-07-29T10:23:53;3.92;;;1.55;;
11006;SDS011;8186;57.652;11.968;2022-07-29T10:26:21;1.67;;;1.20;;
11006;SDS011;8186;57.652;11.968;2022-07-29T10:28:48;3.25;;;1.58;;
11006;SDS011;8186;57.652;11.968;2022-07-29T10:31:27;4.43;;;1.65;;
11006;SDS011;8186;57.652;11.968;2022-07-29T10:33:59;3.78;;;1.45;;
11006;SDS011;8186;57.652;11.968;2022-07-29T10:36:38;2.40;;;1.40;;
11006;SDS011;8186;57.652;11.968;2022-07-29T10:39:12;4.72;;;1.30;;
11006;SDS011;8186;57.652;11.968;2022-07-29T10:42:05;2.58;;;1.38;;
11006;SDS011;8186;57.652;11.968;2022-07-29T10:44:39;1.63;;;1.17;;
11006;SDS011;8186;57.652;11.968;2022-07-29T10:47:07;2.92;;;1.45;;
11006;SDS011;8186;57.652;11.968;2022-07-29T10:49:34;2.58;;;1.35;;
11006;SDS011;8186;57.652;11.968;2022-07-29T10:52:04;2.90;;;1.20;;
11006;SDS011;8186;57.652;11.968;2022-07-29T10:57:27;3.90;;;1.50;;
11006;SDS011;8186;57.652;11.968;2022-07-29T11:03:01;2.80;;;1.55;;
11006;SDS011;8186;57.652;11.968;2022-07-29T11:05:27;2.75;;;1.30;;
11006;SDS011;8186;57.652;11.968;2022-07-29T11:14:05;3.33;;;1.33;;
11006;SDS011;8186;57.652;11.968;2022-07-29T11:19:30;4.38;;;1.38;;
11006;SDS011;8186;57.652;11.968;2022-07-29T11:21:57;2.30;;;1.30;;
11006;SDS011;8186;57.652;11.968;2022-07-29T11:24:24;4.25;;;1.48;;
11006;SDS011;8186;57.652;11.968;2022-07-29T11:29:49;3.67;;;1.70;;
11006;SDS011;8186;57.652;11.968;2022-07-29T11:32:17;2.47;;;1.35;;
11006;SDS011;8186;57.652;11.968;2022-07-29T11:34:46;3.60;;;1.27;;
11006;SDS011;8186;57.652;11.968;2022-07-29T11:37:17;3.42;;;1.48;;
11006;SDS011;8186;57.652;11.968;2022-07-29T11:42:37;6.22;;;1.40;;
11006;SDS011;8186;57.652;11.968;2022-07-29T11:45:06;3.78;;;1.33;;
11006;SDS011;8186;57.652;11.968;2022-07-29T11:47:36;6.25;;;1.42;;
11006;SDS011;8186;57.652;11.968;2022-07-29T11:50:04;1.67;;;1.25;;
11006;SDS011;8186;57.652;11.968;2022-07-29T11:52:33;2.55;;;1.45;;
11006;SDS011;8186;57.652;11.968;2022-07-29T11:55:03;4.53;;;1.55;;
11006;SDS011;8186;57.652;11.968;2022-07-29T11:57:31;3.10;;;1.33;;
11006;SDS011;8186;57.652;11.968;2022-07-29T12:00:00;4.28;;;1.50;;
11006;SDS011;8186;57.652;11.968;2022-07-29T12:02:39;3.15;;;1.40;;
11006;SDS011;8186;57.652;11.968;2022-07-29T12:05:07;3.00;;;1.30;;
11006;SDS011;8186;57.652;11.968;2022-07-29T12:07:35;3.40;;;1.63;;
11006;SDS011;8186;57.652;11.968;2022-07-29T12:10:02;2.75;;;1.67;;
11006;SDS011;8186;57.652;11.968;2022-07-29T12:12:30;5.50;;;1.88;;
11006;SDS011;8186;57.652;11.968;2022-07-29T12:14:56;3.17;;;1.30;;
11006;SDS011;8186;57.652;11.968;2022-07-29T12:17:27;4.03;;;1.50;;
11006;SDS011;8186;57.652;11.968;2022-07-29T12:19:58;4.13;;;1.80;;
11006;SDS011;8186;57.652;11.968;2022-07-29T12:22:26;2.42;;;1.70;;
11006;SDS011;8186;57.652;11.968;2022-07-29T12:24:54;3.25;;;1.60;;
11006;SDS011;8186;57.652;11.968;2022-07-29T12:27:21;2.13;;;1.20;;
11006;SDS011;8186;57.652;11.968;2022-07-29T12:29:55;3.85;;;1.60;;
11006;SDS011;8186;57.652;11.968;2022-07-29T12:32:22;2.20;;;1.40;;
11006;SDS011;8186;57.652;11.968;2022-07-29T12:34:50;1.60;;;1.30;;
11006;SDS011;8186;57.652;11.968;2022-07-29T12:37:18;2.25;;;1.30;;
11006;SDS011;8186;57.652;11.968;2022-07-29T12:39:45;3.35;;;1.50;;
11006;SDS011;8186;57.652;11.968;2022-07-29T12:42:12;2.55;;;1.38;;
11006;SDS011;8186;57.652;11.968;2022-07-29T12:44:46;3.08;;;1.42;;
11006;SDS011;8186;57.652;11.968;2022-07-29T12:47:13;3.25;;;1.58;;
11006;SDS011;8186;57.652;11.968;2022-07-29T12:49:40;3.17;;;1.40;;
11006;SDS011;8186;57.652;11.968;2022-07-29T12:52:24;5.07;;;1.75;;
11006;SDS011;8186;57.652;11.968;2022-07-29T12:54:51;4.82;;;1.52;;
11006;SDS011;8186;57.652;11.968;2022-07-29T12:57:18;3.10;;;1.33;;
11006;SDS011;8186;57.652;11.968;2022-07-29T12:59:46;4.53;;;1.75;;
11006;SDS011;8186;57.652;11.968;2022-07-29T13:02:25;4.50;;;1.60;;
11006;SDS011;8186;57.652;11.968;2022-07-29T13:04:55;2.20;;;1.65;;
11006;SDS011;8186;57.652;11.968;2022-07-29T13:07:27;3.03;;;1.50;;
11006;SDS011;8186;57.652;11.968;2022-07-29T13:10:11;3.00;;;1.83;;
11006;SDS011;8186;57.652;11.968;2022-07-29T13:12:40;5.22;;;1.92;;
11006;SDS011;8186;57.652;11.968;2022-07-29T13:15:30;3.50;;;1.52;;
11006;SDS011;8186;57.652;11.968;2022-07-29T13:17:57;4.07;;;1.38;;
11006;SDS011;8186;57.652;11.968;2022-07-29T13:20:25;5.05;;;1.50;;
11006;SDS011;8186;57.652;11.968;2022-07-29T13:22:56;2.15;;;1.58;;
11006;SDS011;8186;57.652;11.968;2022-07-29T13:25:23;4.93;;;1.98;;
11006;SDS011;8186;57.652;11.968;2022-07-29T13:27:51;2.88;;;1.25;;
11006;SDS011;8186;57.652;11.968;2022-07-29T13:30:19;6.43;;;1.60;;
11006;SDS011;8186;57.652;11.968;2022-07-29T13:32:47;2.88;;;1.40;;
11006;SDS011;8186;57.652;11.968;2022-07-29T13:35:14;2.15;;;1.33;;
11006;SDS011;8186;57.652;11.968;2022-07-29T13:37:41;2.83;;;1.60;;
11006;SDS011;8186;57.652;11.968;2022-07-29T13:40:10;3.50;;;1.65;;
11006;SDS011;8186;57.652;11.968;2022-07-29T13:42:37;3.42;;;1.52;;
11006;SDS011;8186;57.652;11.968;2022-07-29T13:45:05;2.67;;;1.60;;
11006;SDS011;8186;57.652;11.968;2022-07-29T13:47:35;3.00;;;1.48;;
11006;SDS011;8186;57.652;11.968;2022-07-29T13:50:03;4.05;;;2.00;;
11006;SDS011;8186;57.652;11.968;2022-07-29T13:52:31;3.15;;;1.80;;
11006;SDS011;8186;57.652;11.968;2022-07-29T13:54:57;2.55;;;1.42;;
11006;SDS011;8186;57.652;11.968;2022-07-29T13:57:26;4.10;;;1.45;;
11006;SDS011;8186;57.652;11.968;2022-07-29T13:59:52;3.53;;;1.73;;
11006;SDS011;8186;57.652;11.968;2022-07-29T14:02:19;3.90;;;1.48;;
11006;SDS011;8186;57.652;11.968;2022-07-29T14:04:46;3.40;;;1.10;;
11006;SDS011;8186;57.652;11.968;2022-07-29T14:07:13;3.83;;;1.60;;
11006;SDS011;8186;57.652;11.968;2022-07-29T14:09:40;2.58;;;1.10;;
11006;SDS011;8186;57.652;11.968;2022-07-29T14:12:07;2.78;;;1.42;;
11006;SDS011;8186;57.652;11.968;2022-07-29T14:14:36;3.22;;;1.33;;
11006;SDS011;8186;57.652;11.968;2022-07-29T14:17:03;2.47;;;1.33;;
11006;SDS011;8186;57.652;11.968;2022-07-29T14:19:31;1.88;;;1.45;;
11006;SDS011;8186;57.652;11.968;2022-07-29T14:22:01;2.55;;;1.27;;
11006;SDS011;8186;57.652;11.968;2022-07-29T14:24:29;3.45;;;1.25;;
11006;SDS011;8186;57.652;11.968;2022-07-29T14:26:56;2.35;;;1.20;;
11006;SDS011;8186;57.652;11.968;2022-07-29T14:29:23;2.55;;;1.48;;
11006;SDS011;8186;57.652;11.968;2022-07-29T14:31:51;2.13;;;1.25;;
11006;SDS011;8186;57.652;11.968;2022-07-29T14:34:18;2.92;;;1.38;;
11006;SDS011;8186;57.652;11.968;2022-07-29T14:36:45;3.15;;;1.92;;
11006;SDS011;8186;57.652;11.968;2022-07-29T14:39:12;2.45;;;1.30;;
11006;SDS011;8186;57.652;11.968;2022-07-29T14:41:40;3.90;;;1.55;;
11006;SDS011;8186;57.652;11.968;2022-07-29T14:44:07;2.85;;;1.50;;
11006;SDS011;8186;57.652;11.968;2022-07-29T14:46:34;4.22;;;1.60;;
11006;SDS011;8186;57.652;11.968;2022-07-29T14:49:02;2.22;;;1.40;;
11006;SDS011;8186;57.652;11.968;2022-07-29T14:51:30;2.95;;;1.40;;
11006;SDS011;8186;57.652;11.968;2022-07-29T14:53:57;3.78;;;1.20;;
11006;SDS011;8186;57.652;11.968;2022-07-29T14:56:24;4.32;;;1.40;;
11006;SDS011;8186;57.652;11.968;2022-07-29T14:58:52;2.55;;;1.20;;
11006;SDS011;8186;57.652;11.968;2022-07-29T15:01:18;2.00;;;1.25;;
11006;SDS011;8186;57.652;11.968;2022-07-29T15:03:45;3.05;;;1.40;;
11006;SDS011;8186;57.652;11.968;2022-07-29T15:06:13;4.13;;;1.35;;
11006;SDS011;8186;57.652;11.968;2022-07-29T15:08:40;3.05;;;1.20;;
11006;SDS011;8186;57.652;11.968;2022-07-29T15:11:07;2.33;;;1.58;;
11006;SDS011;8186;57.652;11.968;2022-07-29T15:13:34;1.95;;;1.40;;
11006;SDS011;8186;57.652;11.968;2022-07-29T15:16:01;3.33;;;1.63;;
11006;SDS011;8186;57.652;11.968;2022-07-29T15:18:28;2.35;;;1.23;;